Time;durP1;ratioP1;P1;durP2;ratioP2;P2;SDS_P1;SDS_P2;PMS_P1;PMS_P2;Temp;Humidity;BMP_temperature;BMP_pressure;BME280_temperature;BME280_humidity;BME280_pressure;Samples;Min_cycle;Max_cycle;Signal;HPM_P1;HPM_P2
2022/12/04 00:01:34;;;;;;;33.10;21.63;;;;;;;9.19;98.99;100673.13;5073791;28;20199;-54
2022/12/04 00:04:01;;;;;;;37.93;22.23;;;;;;;9.18;99.57;100667.94;5073752;28;20503;-54
2022/12/04 00:06:29;;;;;;;42.33;26.70;;;;;;;9.10;100.00;100661.63;5073064;28;20426;-55
2022/12/04 00:08:56;;;;;;;37.23;24.03;;;;;;;9.22;99.89;100662.13;5073495;28;20627;-55
2022/12/04 00:11:25;;;;;;;38.80;23.13;;;;;;;9.23;99.65;100664.75;5057076;28;20216;-55
2022/12/04 00:13:52;;;;;;;36.70;21.77;;;;;;;9.22;99.55;100663.00;5043812;28;20205;-55
2022/12/04 00:16:21;;;;;;;41.33;23.17;;;;;;;9.12;99.69;100668.56;5036220;28;20227;-55
2022/12/04 00:18:50;;;;;;;38.57;22.10;;;;;;;9.22;99.69;100667.25;5041654;28;20196;-54
2022/12/04 00:21:18;;;;;;;38.47;22.50;;;;;;;9.24;100.00;100668.19;5042703;28;20200;-54
2022/12/04 00:23:45;;;;;;;42.87;22.87;;;;;;;9.24;100.00;100679.31;5051021;28;20225;-57
2022/12/04 00:26:14;;;;;;;41.63;23.47;;;;;;;9.22;100.00;100670.69;5060348;28;20659;-55
2022/12/04 00:28:41;;;;;;;38.63;23.93;;;;;;;9.26;100.00;100674.25;5058017;28;20202;-55
2022/12/04 00:31:10;;;;;;;45.50;24.80;;;;;;;9.20;100.00;100674.88;5052967;28;20194;-55
2022/12/04 00:33:37;;;;;;;45.90;26.63;;;;;;;9.10;100.00;100677.88;5053105;28;20187;-55
2022/12/04 00:36:07;;;;;;;52.70;24.67;;;;;;;9.15;100.00;100666.13;5053037;28;20192;-55
2022/12/04 00:38:34;;;;;;;45.17;24.60;;;;;;;9.20;100.00;100669.75;5046266;28;20195;-55
2022/12/04 00:41:01;;;;;;;46.27;25.00;;;;;;;9.05;100.00;100642.63;5033509;28;20192;-55
2022/12/04 00:43:29;;;;;;;48.53;24.43;;;;;;;9.18;100.00;100670.50;5037972;28;20196;-55
2022/12/04 00:45:56;;;;;;;42.27;22.93;;;;;;;9.20;100.00;100674.88;5044089;28;20194;-55
2022/12/04 00:48:23;;;;;;;41.90;23.60;;;;;;;9.04;100.00;100675.06;5041476;28;20249;-55
2022/12/04 00:50:50;;;;;;;41.70;23.03;;;;;;;9.14;100.00;100666.06;5032642;28;20744;-56
2022/12/04 00:53:18;;;;;;;39.80;22.13;;;;;;;9.09;100.00;100673.56;5033604;28;20219;-55
2022/12/04 00:55:45;;;;;;;48.80;23.37;;;;;;;9.13;100.00;100679.69;5042577;28;20659;-55
2022/12/04 00:58:12;;;;;;;41.20;23.37;;;;;;;9.07;100.00;100659.81;5041232;28;20575;-56
2022/12/04 01:00:42;;;;;;;39.23;20.57;;;;;;;8.99;100.00;100648.38;5052404;28;20208;-55
2022/12/04 01:03:09;;;;;;;39.57;21.57;;;;;;;8.92;100.00;100630.13;5052053;28;20196;-54
2022/12/04 01:05:39;;;;;;;44.97;23.40;;;;;;;9.03;100.00;100646.81;5052593;28;20192;-55
2022/12/04 01:08:06;;;;;;;46.93;23.80;;;;;;;9.14;100.00;100668.63;5052366;28;20195;-55
2022/12/04 01:10:34;;;;;;;50.63;28.63;;;;;;;9.11;100.00;100668.50;5051621;28;20513;-55
2022/12/04 01:13:01;;;;;;;43.17;24.07;;;;;;;9.18;100.00;100660.22;5052265;28;20219;-55
2022/12/04 01:15:28;;;;;;;46.20;22.27;;;;;;;9.03;100.00;100664.75;5052423;28;20184;-55
2022/12/04 01:17:55;;;;;;;39.80;21.23;;;;;;;9.00;100.00;100662.94;5052320;28;20184;-55
2022/12/04 01:20:22;;;;;;;44.03;21.27;;;;;;;9.05;100.00;100669.13;5052248;28;20705;-55
2022/12/04 01:22:49;;;;;;;43.60;23.67;;;;;;;8.99;100.00;100671.44;5052948;28;20196;-55
2022/12/04 01:25:16;;;;;;;48.50;22.77;;;;;;;9.01;100.00;100671.53;5052642;28;20191;-55
2022/12/04 01:27:44;;;;;;;39.40;21.80;;;;;;;9.09;100.00;100668.44;5052418;28;20196;-55
2022/12/04 01:30:12;;;;;;;44.77;23.27;;;;;;;9.15;100.00;100678.06;5052062;28;20227;-55
2022/12/04 01:32:39;;;;;;;40.50;22.10;;;;;;;9.17;100.00;100669.66;5052185;28;20277;-55
2022/12/04 01:35:06;;;;;;;46.40;22.33;;;;;;;9.13;100.00;100670.31;5052188;28;20677;-55
2022/12/04 01:37:33;;;;;;;39.40;22.13;;;;;;;8.86;100.00;100667.50;5052717;28;20188;-55
2022/12/04 01:40:00;;;;;;;38.80;20.57;;;;;;;8.98;100.00;100679.09;5052128;28;20306;-55
2022/12/04 01:42:27;;;;;;;38.10;20.37;;;;;;;9.02;100.00;100675.81;5052090;28;20286;-55
2022/12/04 01:45:38;;;;;;;34.33;19.23;;;;;;;8.98;100.00;100681.66;5051983;28;20539;-54
2022/12/04 01:48:13;;;;;;;35.27;19.87;;;;;;;9.02;100.00;100674.13;5052701;28;20192;-55
2022/12/04 01:50:41;;;;;;;39.70;21.03;;;;;;;9.00;100.00;100675.75;5051889;28;20708;-55
2022/12/04 01:53:08;;;;;;;35.03;20.80;;;;;;;9.04;100.00;100671.66;5052220;28;20227;-55
2022/12/04 01:55:35;;;;;;;39.77;20.13;;;;;;;8.99;100.00;100665.44;5052042;28;20206;-55
2022/12/04 01:58:02;;;;;;;36.00;20.47;;;;;;;9.04;100.00;100671.66;5051874;28;20200;-55
2022/12/04 02:00:29;;;;;;;34.50;19.90;;;;;;;9.08;100.00;100668.38;5051963;28;20539;-54
2022/12/04 02:02:58;;;;;;;35.13;20.23;;;;;;;9.11;100.00;100659.13;5051739;28;20199;-54
2022/12/04 02:05:25;;;;;;;33.83;20.43;;;;;;;9.08;99.99;100665.81;5051821;28;20512;-54
2022/12/04 02:07:56;;;;;;;33.57;20.93;;;;;;;8.99;99.71;100662.88;5051938;28;20188;-55
2022/12/04 02:10:31;;;;;;;35.97;20.00;;;;;;;9.06;100.00;100663.22;5051735;28;20590;-54
2022/12/04 02:13:07;;;;;;;38.20;21.10;;;;;;;9.11;100.00;100660.81;5052014;28;20230;-54
2022/12/04 02:15:41;;;;;;;38.87;23.80;;;;;;;9.04;100.00;100662.25;5054643;28;20184;-54
2022/12/04 02:18:16;;;;;;;43.73;24.33;;;;;;;8.84;100.00;100658.84;5055862;28;20193;-54
2022/12/04 02:20:50;;;;;;;48.20;24.53;;;;;;;8.76;100.00;100655.09;5055826;28;20197;-54
2022/12/04 02:23:30;;;;;;;50.63;25.43;;;;;;;8.69;100.00;100663.34;5056361;28;20199;-54
2022/12/04 02:26:09;;;;;;;49.30;24.73;;;;;;;8.65;100.00;100666.59;5056066;28;20199;-54
2022/12/04 02:28:45;;;;;;;42.40;22.20;;;;;;;8.62;100.00;100658.78;5055977;28;20334;-54
2022/12/04 02:31:16;;;;;;;43.50;24.37;;;;;;;8.65;100.00;100650.38;5055613;28;20188;-55
2022/12/04 02:33:48;;;;;;;47.07;23.27;;;;;;;8.76;100.00;100657.66;5055377;28;20269;-55
2022/12/04 02:36:20;;;;;;;46.10;23.03;;;;;;;8.80;100.00;100664.69;5055433;28;20658;-55
2022/12/04 02:38:53;;;;;;;37.77;22.10;;;;;;;8.83;100.00;100669.06;5055463;28;20197;-55
2022/12/04 02:41:24;;;;;;;46.33;23.03;;;;;;;8.80;100.00;100662.13;5055517;28;20198;-55
2022/12/04 02:43:56;;;;;;;42.00;22.50;;;;;;;8.83;100.00;100663.94;5055231;28;20653;-55
2022/12/04 02:46:28;;;;;;;38.20;20.93;;;;;;;8.93;100.00;100666.06;5044475;28;20654;-55
2022/12/04 02:49:01;;;;;;;37.90;21.60;;;;;;;8.98;100.00;100671.38;5054414;28;20202;-55
2022/12/04 02:51:33;;;;;;;35.70;19.27;;;;;;;8.74;100.00;100655.84;5055372;28;20319;-55
2022/12/04 02:54:05;;;;;;;37.60;21.37;;;;;;;8.78;100.00;100656.06;5055436;28;20276;-55
2022/12/04 02:56:37;;;;;;;36.10;20.70;;;;;;;8.85;100.00;100662.28;5054998;28;20200;-55
2022/12/04 02:59:09;;;;;;;36.33;20.90;;;;;;;8.82;100.00;100664.72;5054865;28;20788;-55
2022/12/04 03:01:39;;;;;;;36.20;21.23;;;;;;;8.78;100.00;100674.00;5055010;28;20596;-55
2022/12/04 03:04:11;;;;;;;36.70;21.17;;;;;;;8.74;100.00;100672.09;5053343;28;20670;-55
2022/12/04 03:06:42;;;;;;;40.70;21.57;;;;;;;8.77;100.00;100664.56;5060938;28;20237;-55
2022/12/04 03:09:16;;;;;;;37.33;20.07;;;;;;;8.69;100.00;100668.47;5075297;28;20190;-55
2022/12/04 03:11:47;;;;;;;38.63;21.53;;;;;;;8.63;100.00;100660.53;5074972;28;20189;-55
2022/12/04 03:14:20;;;;;;;47.45;28.60;;;;;;;8.60;100.00;100657.84;5074080;28;20429;-55
2022/12/04 03:16:51;;;;;;;43.03;26.00;;;;;;;8.78;100.00;100656.06;5074744;28;20192;-55
2022/12/04 03:19:23;;;;;;;41.10;22.27;;;;;;;8.53;100.00;100630.22;5074527;28;20287;-55
2022/12/04 03:21:54;;;;;;;36.20;21.33;;;;;;;8.57;100.00;100662.81;5074831;28;20557;-55
2022/12/04 03:24:26;;;;;;;39.53;22.13;;;;;;;8.62;100.00;100666.47;5074512;28;20201;-55
2022/12/04 03:27:01;;;;;;;35.30;21.23;;;;;;;8.70;100.00;100665.13;5073874;28;20565;-55
2022/12/04 03:29:35;;;;;;;38.07;21.43;;;;;;;8.60;100.00;100651.81;5074551;28;20209;-55
2022/12/04 03:32:08;;;;;;;40.00;21.30;;;;;;;8.65;100.00;100643.53;5074389;28;20261;-56
2022/12/04 03:34:43;;;;;;;39.27;23.33;;;;;;;8.74;100.00;100656.72;5075208;28;20248;-55
2022/12/04 03:37:15;;;;;;;42.70;23.73;;;;;;;8.65;100.00;100640.97;5074292;28;20616;-55
2022/12/04 03:39:51;;;;;;;45.40;23.57;;;;;;;8.71;100.00;100651.47;5074201;28;20205;-55
2022/12/04 03:42:23;;;;;;;38.23;21.67;;;;;;;8.85;100.00;100657.19;5074232;28;20604;-56
2022/12/04 03:44:58;;;;;;;36.93;22.93;;;;;;;8.85;100.00;100654.59;5074742;28;20592;-55
2022/12/04 03:47:31;;;;;;;38.37;21.57;;;;;;;8.87;100.00;100656.41;5071483;28;20191;-55
2022/12/04 03:50:01;;;;;;;38.60;21.73;;;;;;;8.86;100.00;100659.81;5060511;28;20210;-55
2022/12/04 03:52:35;;;;;;;39.07;23.57;;;;;;;8.62;100.00;100640.88;5074073;28;20227;-55
2022/12/04 03:55:05;;;;;;;41.67;24.03;;;;;;;8.63;100.00;100665.66;5073930;28;20210;-55
2022/12/04 03:57:37;;;;;;;39.17;22.67;;;;;;;8.41;100.00;100668.09;5073782;28;20191;-55
2022/12/04 04:00:08;;;;;;;39.47;22.17;;;;;;;7.03;100.00;100435.94;5074349;28;20188;-55
2022/12/04 04:02:41;;;;;;;40.97;22.97;;;;;;;8.42;100.00;100664.75;5073792;28;20226;-55
2022/12/04 04:05:10;;;;;;;45.53;26.03;;;;;;;8.48;100.00;100671.81;5073770;28;20199;-55
2022/12/04 04:07:44;;;;;;;37.70;23.47;;;;;;;8.43;100.00;100671.63;5073648;28;20211;-55
2022/12/04 04:10:14;;;;;;;39.77;23.53;;;;;;;8.49;100.00;100669.31;5073458;28;20657;-55
2022/12/04 04:24:12;;;;;;;33.60;20.10;;;;;;;8.53;100.00;100667.75;5073396;28;20697;-55
2022/12/04 04:24:28;;;;;;;27.17;16.50;;;;;;;8.59;100.00;100671.47;5058852;28;20240;-55
2022/12/04 04:26:55;;;;;;;29.20;17.07;;;;;;;8.57;100.00;100669.66;5073586;28;20186;-55
2022/12/04 04:29:22;;;;;;;29.83;17.87;;;;;;;8.58;100.00;100673.94;5073114;28;20256;-55
2022/12/04 04:31:59;;;;;;;27.80;17.50;;;;;;;8.65;100.00;100661.47;5073388;28;20655;-55
2022/12/04 04:34:32;;;;;;;29.80;18.27;;;;;;;8.73;100.00;100670.38;5072487;28;20219;-56
2022/12/04 04:37:05;;;;;;;26.23;17.57;;;;;;;8.80;100.00;100677.50;5033294;28;20189;-55
2022/12/04 04:39:38;;;;;;;28.57;18.10;;;;;;;8.76;100.00;100674.75;5033031;28;20192;-55
2022/12/04 04:42:12;;;;;;;24.93;17.07;;;;;;;8.73;100.00;100680.63;5033538;28;20216;-55
2022/12/04 04:44:46;;;;;;;25.60;17.47;;;;;;;8.44;100.00;100655.44;5032917;28;20203;-55
2022/12/04 04:47:20;;;;;;;27.43;18.30;;;;;;;8.65;100.00;100684.50;5033229;28;20192;-55
2022/12/04 04:49:51;;;;;;;25.07;18.27;;;;;;;8.64;100.00;100676.78;5033295;28;20196;-55
2022/12/04 04:52:22;;;;;;;28.23;18.17;;;;;;;8.70;100.00;100683.06;5032873;28;20599;-55
2022/12/04 04:54:49;;;;;;;27.07;17.57;;;;;;;8.58;100.00;100691.88;5032870;28;20196;-55
2022/12/04 04:57:26;;;;;;;34.40;20.60;;;;;;;8.55;100.00;100682.38;5032854;28;20185;-55
2022/12/04 04:59:53;;;;;;;27.47;18.10;;;;;;;8.50;100.00;100688.13;5032867;28;20191;-55
2022/12/04 05:02:21;;;;;;;26.97;18.70;;;;;;;8.50;100.00;100678.75;5032572;28;20254;-55
2022/12/04 05:04:48;;;;;;;26.60;17.60;;;;;;;8.67;100.00;100693.16;5032772;28;20196;-55
2022/12/04 05:07:14;;;;;;;25.30;16.90;;;;;;;8.65;100.00;100691.34;5034191;28;20192;-56
2022/12/04 05:09:41;;;;;;;27.33;16.27;;;;;;;8.71;100.00;100705.28;5060001;28;20200;-55
2022/12/04 05:12:08;;;;;;;23.87;16.20;;;;;;;8.13;100.00;100622.47;5057022;28;20245;-55
2022/12/04 05:14:35;;;;;;;27.27;18.63;;;;;;;8.66;100.00;100698.22;5072409;28;20219;-55
2022/12/04 05:17:04;;;;;;;24.90;18.13;;;;;;;8.75;100.00;100708.84;5072611;28;20197;-55
2022/12/04 05:22:18;;;;;;;28.00;18.50;;;;;;;8.72;99.47;100701.91;5072440;28;20322;-55
2022/12/04 05:24:45;;;;;;;29.27;18.13;;;;;;;8.54;99.96;100708.78;5072328;28;20196;-56
2022/12/04 05:27:12;;;;;;;27.30;17.03;;;;;;;8.62;100.00;100711.72;5072800;28;20199;-55
2022/12/04 05:29:39;;;;;;;22.30;15.67;;;;;;;8.69;100.00;100706.91;5072369;28;20191;-55
2022/12/04 05:32:06;;;;;;;28.63;16.80;;;;;;;8.76;100.00;100713.19;5072270;28;20194;-55
2022/12/04 05:34:34;;;;;;;24.43;15.93;;;;;;;8.77;99.58;100712.34;5072187;28;20269;-55
2022/12/04 05:37:00;;;;;;;27.20;15.87;;;;;;;8.77;99.12;100713.22;5072316;28;20192;-55
2022/12/04 05:39:27;;;;;;;20.73;14.70;;;;;;;8.74;98.81;100723.34;5072186;28;20248;-55
2022/12/04 05:41:54;;;;;;;27.60;17.00;;;;;;;8.68;99.02;100730.78;5072475;28;20186;-55
2022/12/04 05:44:21;;;;;;;21.40;16.13;;;;;;;8.64;99.54;100723.78;5072364;28;20191;-56
2022/12/04 05:46:48;;;;;;;26.03;16.80;;;;;;;8.69;99.81;100723.97;5072042;28;20195;-55
2022/12/04 05:49:14;;;;;;;27.03;18.17;;;;;;;8.63;99.54;100716.00;5074221;28;20719;-55
2022/12/04 05:51:43;;;;;;;30.20;19.23;;;;;;;8.56;99.80;100716.56;5078757;28;20220;-55
2022/12/04 05:54:10;;;;;;;30.07;18.23;;;;;;;8.54;100.00;100707.94;5078624;28;20303;-55
2022/12/04 05:56:37;;;;;;;28.10;19.47;;;;;;;8.43;100.00;100725.41;5078538;28;20202;-55
2022/12/04 05:59:04;;;;;;;26.17;16.80;;;;;;;8.54;100.00;100726.72;5078691;28;20676;-55
2022/12/04 06:01:30;;;;;;;24.20;16.37;;;;;;;8.49;100.00;100729.94;5078629;28;20202;-54
2022/12/04 06:03:57;;;;;;;25.17;17.40;;;;;;;8.52;100.00;100727.47;5078638;28;20268;-54
2022/12/04 06:06:25;;;;;;;30.13;17.53;;;;;;;8.58;100.00;100735.44;5078522;28;20224;-55
2022/12/04 06:08:56;;;;;;;24.67;17.47;;;;;;;8.65;99.84;100733.19;5078417;28;20194;-55
2022/12/04 06:11:25;;;;;;;24.87;17.87;;;;;;;8.70;99.39;100729.16;5078326;28;20190;-55
2022/12/04 06:13:52;;;;;;;29.03;19.40;;;;;;;8.65;99.20;100732.34;5078092;28;20279;-55
2022/12/04 06:16:20;;;;;;;28.93;19.90;;;;;;;8.60;99.19;100729.56;5078312;28;20201;-55
2022/12/04 06:18:49;;;;;;;30.90;20.27;;;;;;;8.68;99.43;100733.31;5078086;28;20435;-55
2022/12/04 06:21:16;;;;;;;28.07;18.80;;;;;;;8.72;99.15;100742.03;5078223;28;20256;-55
2022/12/04 06:23:43;;;;;;;32.17;20.30;;;;;;;8.65;98.89;100742.59;5077977;28;20198;-56
2022/12/04 06:26:11;;;;;;;30.07;19.80;;;;;;;8.69;99.17;100741.91;5078682;28;20191;-56
2022/12/04 06:28:38;;;;;;;31.77;18.20;;;;;;;8.74;98.82;100748.97;5067237;28;20575;-56
2022/12/04 06:31:07;;;;;;;29.27;20.20;;;;;;;8.62;99.01;100752.69;5078083;28;20197;-54
2022/12/04 06:33:34;;;;;;;26.93;18.60;;;;;;;8.69;99.06;100750.47;5078113;28;20226;-54
2022/12/04 06:36:02;;;;;;;25.80;17.63;;;;;;;8.64;98.65;100748.50;5071524;28;20608;-54
2022/12/04 06:38:30;;;;;;;23.20;16.67;;;;;;;8.67;98.92;100746.97;5058204;28;20226;-55
2022/12/04 06:40:57;;;;;;;30.53;17.37;;;;;;;8.67;98.90;100746.97;5077936;28;20198;-54
2022/12/04 06:43:25;;;;;;;26.47;17.13;;;;;;;8.59;98.82;100730.38;5077844;28;20195;-54
2022/12/04 06:46:00;;;;;;;25.90;17.03;;;;;;;8.70;98.52;100757.34;5076340;28;20257;-54
2022/12/04 06:48:28;;;;;;;22.87;16.10;;;;;;;8.65;99.12;100753.69;5067354;28;20195;-55
2022/12/04 06:50:58;;;;;;;22.10;15.93;;;;;;;8.56;99.31;100753.31;5078335;28;20531;-54
2022/12/04 06:53:26;;;;;;;23.00;15.67;;;;;;;8.58;99.36;100754.25;5078589;28;20228;-54
2022/12/04 06:55:53;;;;;;;22.13;15.27;;;;;;;8.51;99.33;100749.66;5078302;28;20190;-54
2022/12/04 06:58:20;;;;;;;23.80;17.13;;;;;;;8.53;99.87;100752.28;5077778;28;20206;-54
2022/12/04 07:00:48;;;;;;;22.50;16.13;;;;;;;8.49;99.98;100753.81;5062630;28;20188;-54
2022/12/04 07:03:15;;;;;;;23.37;15.83;;;;;;;8.50;100.00;100753.03;5055873;28;20261;-54
2022/12/04 07:05:42;;;;;;;25.07;15.43;;;;;;;8.49;100.00;100753.81;5059617;28;20199;-56
2022/12/04 07:08:09;;;;;;;20.37;15.27;;;;;;;8.54;99.88;100754.91;5057983;28;20194;-55
2022/12/04 07:10:36;;;;;;;19.87;14.97;;;;;;;8.56;99.61;100753.31;5074647;28;20189;-55
2022/12/04 07:13:03;;;;;;;22.40;16.47;;;;;;;8.54;99.86;100757.47;5074491;28;20195;-54
2022/12/04 07:15:30;;;;;;;24.00;15.93;;;;;;;8.59;100.00;100753.44;5059834;28;20204;-54
2022/12/04 07:17:58;;;;;;;19.40;14.87;;;;;;;8.22;99.46;100699.69;5054202;28;20191;-54
2022/12/04 07:20:26;;;;;;;22.87;16.33;;;;;;;8.38;100.00;100757.59;5054363;28;20240;-56
2022/12/04 07:22:52;;;;;;;25.27;16.10;;;;;;;8.41;100.00;100760.28;5056705;28;20245;-57
2022/12/04 07:25:19;;;;;;;21.33;15.67;;;;;;;8.50;100.00;100762.38;5051008;28;20203;-57
2022/12/04 07:27:46;;;;;;;21.03;16.50;;;;;;;8.53;100.00;100758.28;5050942;28;20202;-56
2022/12/04 07:30:14;;;;;;;23.90;16.03;;;;;;;8.43;99.90;100756.13;5051566;28;20672;-56
2022/12/04 07:32:41;;;;;;;23.43;17.27;;;;;;;8.54;100.00;100761.72;5049778;28;20605;-56
2022/12/04 07:35:09;;;;;;;23.20;16.90;;;;;;;8.55;100.00;100763.47;5052782;28;20208;-55
2022/12/04 07:37:37;;;;;;;23.80;16.30;;;;;;;8.48;99.95;100762.34;5055551;28;20196;-56
2022/12/04 07:40:04;;;;;;;23.80;16.57;;;;;;;8.60;99.80;100767.09;5072874;28;20195;-57
2022/12/04 07:42:31;;;;;;;25.73;17.77;;;;;;;8.68;99.85;100771.75;5074016;28;20249;-55
2022/12/04 07:44:58;;;;;;;25.23;18.70;;;;;;;8.73;99.48;100762.63;5073891;28;20241;-56
2022/12/04 07:47:24;;;;;;;25.93;18.60;;;;;;;8.80;98.65;100769.75;5073947;28;20251;-55
2022/12/04 07:49:51;;;;;;;26.07;18.13;;;;;;;8.83;98.57;100771.56;5073985;28;20195;-56
2022/12/04 07:52:19;;;;;;;26.67;18.03;;;;;;;8.71;98.73;100777.03;5073515;28;20224;-55
2022/12/04 07:54:46;;;;;;;24.73;16.83;;;;;;;8.68;98.84;100764.06;5073838;28;20299;-56
2022/12/04 07:57:13;;;;;;;25.20;15.80;;;;;;;8.73;98.86;100767.75;5072368;28;20202;-55
2022/12/04 07:59:40;;;;;;;24.30;15.33;;;;;;;8.71;98.78;100758.22;5066057;28;20199;-56
2022/12/04 08:02:06;;;;;;;24.43;17.47;;;;;;;8.74;98.57;100769.47;5057413;28;20251;-56
2022/12/04 08:04:33;;;;;;;21.33;16.60;;;;;;;8.73;98.39;100770.31;5051883;28;20202;-56
2022/12/04 08:07:00;;;;;;;22.77;16.10;;;;;;;8.74;98.58;100766.03;5061123;28;20195;-55
2022/12/04 08:09:28;;;;;;;25.73;16.77;;;;;;;8.69;98.45;100768.41;5069852;28;20249;-55
2022/12/04 08:11:55;;;;;;;22.33;15.70;;;;;;;8.64;98.45;100762.22;5056235;28;20200;-56
2022/12/04 08:14:22;;;;;;;44.33;15.70;;;;;;;8.68;99.10;100770.91;5073356;28;20585;-55
2022/12/04 08:16:49;;;;;;;28.37;17.37;;;;;;;8.58;99.16;100777.31;5073431;28;20194;-56
2022/12/04 08:19:16;;;;;;;26.80;17.53;;;;;;;8.61;99.42;100771.44;5073132;28;20198;-56
2022/12/04 08:21:43;;;;;;;21.80;16.33;;;;;;;8.54;99.70;100772.84;5073142;28;20196;-55
2022/12/04 08:24:10;;;;;;;25.47;17.37;;;;;;;8.55;100.00;100772.03;5073230;28;20207;-56
2022/12/04 08:26:38;;;;;;;27.47;18.53;;;;;;;8.60;100.00;100773.09;5073148;28;20191;-56
2022/12/04 08:29:06;;;;;;;23.77;16.60;;;;;;;8.64;100.00;100777.56;5073405;28;20194;-56
2022/12/04 08:31:34;;;;;;;25.93;17.30;;;;;;;8.61;100.00;100782.56;5072862;28;20196;-56
2022/12/04 08:34:05;;;;;;;24.57;17.20;;;;;;;8.47;100.00;100770.81;5073510;28;20220;-55
2022/12/04 08:36:32;;;;;;;27.57;19.13;;;;;;;8.49;100.00;100766.63;5072732;28;20237;-56
2022/12/04 08:38:59;;;;;;;28.50;18.27;;;;;;;8.60;100.00;100769.66;5072803;28;20199;-56
2022/12/04 08:41:27;;;;;;;23.40;17.37;;;;;;;8.51;100.00;100765.03;5072590;28;20257;-56
2022/12/04 08:43:56;;;;;;;27.90;17.03;;;;;;;8.68;100.00;100779.44;5072850;28;20197;-56
2022/12/04 08:46:25;;;;;;;33.07;21.20;;;;;;;8.76;99.82;100774.69;5072489;28;20559;-56
2022/12/04 08:48:52;;;;;;;22.57;17.50;;;;;;;8.68;99.40;100748.69;5072583;28;20676;-56
2022/12/04 08:51:21;;;;;;;30.67;19.97;;;;;;;8.87;99.06;100763.22;5072716;28;20228;-56
2022/12/04 08:53:48;;;;;;;28.13;18.77;;;;;;;8.98;98.75;100774.81;5072509;28;20226;-56
2022/12/04 08:56:15;;;;;;;30.03;20.17;;;;;;;8.97;98.31;100770.47;5072332;28;20198;-56
2022/12/04 08:58:42;;;;;;;25.10;15.43;;;;;;;8.99;97.69;100763.72;5072103;28;20657;-55
2022/12/04 09:01:12;;;;;;;35.47;25.97;;;;;;;9.06;97.42;100762.31;5072408;28;20190;-56
2022/12/04 09:03:40;;;;;;;24.70;16.80;;;;;;;9.11;97.14;100765.94;5072810;28;20191;-56
2022/12/04 09:06:08;;;;;;;32.97;20.43;;;;;;;9.05;96.80;100760.53;5072454;28;20198;-56
2022/12/04 09:08:35;;;;;;;28.13;17.63;;;;;;;9.00;96.93;100749.22;5072509;28;20192;-55
2022/12/04 09:11:04;;;;;;;23.30;15.83;;;;;;;9.01;96.78;100756.13;5072267;28;20222;-56
2022/12/04 09:13:30;;;;;;;26.10;15.97;;;;;;;9.03;96.72;100747.66;5072455;28;20241;-57
2022/12/04 09:15:57;;;;;;;27.73;16.90;;;;;;;9.03;96.90;100752.81;5072006;28;20191;-55
2022/12/04 09:18:25;;;;;;;23.37;14.57;;;;;;;8.90;97.02;100737.69;5072253;28;20183;-55
2022/12/04 09:20:56;;;;;;;26.33;18.27;;;;;;;9.00;97.25;100751.78;5070902;28;20438;-55
2022/12/04 09:23:24;;;;;;;26.33;17.67;;;;;;;9.07;96.61;100753.78;5071705;28;20668;-56
2022/12/04 09:25:51;;;;;;;27.13;16.87;;;;;;;9.07;96.63;100754.66;5071785;28;20187;-56
2022/12/04 09:28:18;;;;;;;26.60;17.23;;;;;;;9.05;96.58;100740.03;5072272;28;20221;-56
2022/12/04 09:30:45;;;;;;;28.93;17.27;;;;;;;9.09;96.68;100735.09;5071937;28;20190;-56
2022/12/04 09:33:12;;;;;;;23.97;14.50;;;;;;;9.01;96.44;100731.31;5071951;28;20286;-56
2022/12/04 09:35:40;;;;;;;30.17;16.93;;;;;;;8.81;96.96;100729.63;5072498;28;20246;-57
2022/12/04 09:38:07;;;;;;;28.60;16.77;;;;;;;8.76;97.86;100729.41;5072831;28;20198;-56
2022/12/04 09:40:41;;;;;;;28.50;16.53;;;;;;;8.76;97.95;100721.72;5071838;28;20188;-55
2022/12/04 09:43:21;;;;;;;40.67;18.60;;;;;;;8.74;98.26;100725.91;5071789;28;20187;-54
2022/12/04 09:45:53;;;;;;;34.50;20.40;;;;;;;8.80;97.94;100723.63;5071465;28;20221;-55
2022/12/04 09:48:22;;;;;;;33.07;20.77;;;;;;;8.87;97.87;100719.66;5071888;28;20188;-55
2022/12/04 09:50:52;;;;;;;37.87;19.57;;;;;;;8.66;97.68;100719.59;5058226;28;20191;-55
2022/12/04 09:53:22;;;;;;;38.03;20.47;;;;;;;8.27;98.49;100657.25;5044196;28;20664;-56
2022/12/04 09:55:55;;;;;;;31.67;19.43;;;;;;;8.70;98.52;100715.47;5051559;28;20203;-56
2022/12/04 09:58:25;;;;;;;37.77;19.80;;;;;;;8.73;98.31;100711.38;5051947;28;20188;-56
2022/12/04 10:00:54;;;;;;;30.77;18.43;;;;;;;8.66;97.94;100687.97;5051752;28;20188;-56
2022/12/04 10:03:25;;;;;;;29.83;18.93;;;;;;;8.90;97.28;100715.50;5052416;28;20188;-56
2022/12/04 10:06:02;;;;;;;29.13;16.40;;;;;;;8.75;96.84;100719.09;5051426;28;20188;-57
2022/12/04 10:08:31;;;;;;;27.37;18.27;;;;;;;8.77;97.51;100713.22;5046277;28;20205;-56
2022/12/04 10:11:16;;;;;;;25.63;18.97;;;;;;;8.87;97.55;100710.25;5069442;28;20206;-57
2022/12/04 10:14:03;;;;;;;28.13;17.20;;;;;;;8.95;97.05;100705.47;5070480;28;20203;-56
2022/12/04 10:16:38;;;;;;;28.30;19.80;;;;;;;8.95;96.68;100702.03;5068038;28;20445;-56
2022/12/04 10:19:13;;;;;;;24.37;17.80;;;;;;;8.91;96.34;100690.75;5055631;28;20188;-56
2022/12/04 10:21:57;;;;;;;29.50;17.03;;;;;;;8.96;96.13;100696.06;5037673;28;20204;-56
2022/12/04 10:24:38;;;;;;;21.20;16.77;;;;;;;9.05;95.66;100709.28;5031354;28;20193;-56
2022/12/04 10:27:12;;;;;;;26.23;17.77;;;;;;;8.83;96.14;100707.50;5031770;28;20181;-57
2022/12/04 10:29:41;;;;;;;21.80;16.90;;;;;;;8.84;96.78;100689.59;5031692;28;20713;-56
2022/12/04 10:32:18;;;;;;;25.93;16.50;;;;;;;8.87;95.94;100692.31;5031285;28;20224;-56
2022/12/04 10:34:46;;;;;;;21.53;15.47;;;;;;;8.90;95.84;100687.31;5031153;28;20254;-56
2022/12/04 10:37:15;;;;;;;19.83;15.43;;;;;;;8.65;96.21;100692.19;5035042;28;20270;-56
2022/12/04 10:39:48;;;;;;;27.87;16.13;;;;;;;8.78;97.17;100681.69;5035021;28;20599;-57
2022/12/04 10:42:26;;;;;;;20.00;15.77;;;;;;;8.87;96.55;100686.31;5075251;28;20604;-56
2022/12/04 10:44:54;;;;;;;21.67;17.30;;;;;;;8.81;96.24;100688.63;5061555;28;20206;-56
2022/12/04 10:47:22;;;;;;;22.37;16.20;;;;;;;8.80;96.46;100680.06;5069030;28;20195;-55
2022/12/04 10:49:56;;;;;;;20.53;14.93;;;;;;;8.89;95.91;100669.31;5071615;28;20195;-55
2022/12/04 10:52:24;;;;;;;17.20;14.07;;;;;;;8.83;95.68;100677.63;5066031;28;20231;-55
2022/12/04 10:54:55;;;;;;;22.47;12.27;;;;;;;8.93;96.12;100668.63;5054950;28;20231;-55
2022/12/04 10:57:21;;;;;;;21.60;18.20;;;;;;;8.97;96.09;100662.81;5068469;28;20624;-57
2022/12/04 10:59:51;;;;;;;22.17;16.73;;;;;;;9.05;95.82;100658.00;5062833;28;20194;-56
2022/12/04 11:02:22;;;;;;;21.17;14.83;;;;;;;9.12;94.68;100647.19;5052537;28;20196;-56
2022/12/04 11:04:56;;;;;;;17.97;13.30;;;;;;;9.03;94.85;100646.81;5052021;28;20257;-56
2022/12/04 11:07:26;;;;;;;15.40;13.07;;;;;;;9.01;94.85;100645.88;5053734;28;20188;-56
2022/12/04 11:10:02;;;;;;;17.33;15.40;;;;;;;8.92;95.23;100641.25;5050900;28;20191;-56
2022/12/04 11:12:30;;;;;;;16.70;12.70;;;;;;;9.01;95.36;100645.88;5053478;28;20211;-57
2022/12/04 11:15:01;;;;;;;17.87;15.70;;;;;;;9.04;94.79;100646.88;5053561;28;20204;-56
2022/12/04 11:17:28;;;;;;;19.57;14.63;;;;;;;8.89;94.53;100631.75;5054086;28;20188;-56
2022/12/04 11:20:02;;;;;;;19.97;15.53;;;;;;;8.94;95.28;100634.50;5053422;28;20196;-56
2022/12/04 11:22:31;;;;;;;17.50;15.07;;;;;;;8.96;95.27;100639.66;5052382;28;20197;-57
2022/12/04 11:24:59;;;;;;;23.67;17.23;;;;;;;8.92;95.40;100630.13;5047243;28;20193;-56
2022/12/04 11:27:31;;;;;;;22.20;16.60;;;;;;;8.80;95.58;100626.25;5053273;28;20613;-56
2022/12/04 11:30:00;;;;;;;17.53;13.97;;;;;;;8.85;95.89;100629.88;5051607;28;20198;-56
2022/12/04 11:32:32;;;;;;;18.60;15.30;;;;;;;8.94;95.73;100623.38;5053383;28;20693;-56
2022/12/04 11:35:07;;;;;;;27.30;19.73;;;;;;;8.83;95.59;100605.88;5053332;28;20211;-56